sensor_id;sensor_type;location;lat;lon;timestamp;temperature;humidity
11619;DHT22;5865;48.776;9.280;2023-01-24T00:20:06;2.50;99.90
11619;DHT22;5865;48.776;9.280;2023-01-24T00:22:33;2.50;99.90
11619;DHT22;5865;48.776;9.280;2023-01-24T00:27:28;2.50;99.90
11619;DHT22;5865;48.776;9.280;2023-01-24T00:29:57;2.60;99.90
11619;DHT22;5865;48.776;9.280;2023-01-24T00:32:23;2.60;99.90
11619;DHT22;5865;48.776;9.280;2023-01-24T00:34:50;2.60;99.90
11619;DHT22;5865;48.776;9.280;2023-01-24T00:42:12;2.60;99.90
11619;DHT22;5865;48.776;9.280;2023-01-24T00:44:40;2.60;99.90
11619;DHT22;5865;48.776;9.280;2023-01-24T00:47:08;2.60;99.90
11619;DHT22;5865;48.776;9.280;2023-01-24T00:52:03;2.60;99.90
11619;DHT22;5865;48.776;9.280;2023-01-24T01:04:20;2.60;99.90
11619;DHT22;5865;48.776;9.280;2023-01-24T01:09:14;2.60;99.90
11619;DHT22;5865;48.776;9.280;2023-01-24T01:11:41;2.60;99.90
11619;DHT22;5865;48.776;9.280;2023-01-24T01:14:09;2.60;99.90
11619;DHT22;5865;48.776;9.280;2023-01-24T01:16:36;2.50;99.90
11619;DHT22;5865;48.776;9.280;2023-01-24T01:19:05;2.60;99.90
11619;DHT22;5865;48.776;9.280;2023-01-24T01:23:59;2.50;99.90
11619;DHT22;5865;48.776;9.280;2023-01-24T01:26:26;2.50;99.90
11619;DHT22;5865;48.776;9.280;2023-01-24T01:28:53;2.50;99.90
11619;DHT22;5865;48.776;9.280;2023-01-24T01:31:20;2.50;99.90
11619;DHT22;5865;48.776;9.280;2023-01-24T01:36:16;2.50;99.90
11619;DHT22;5865;48.776;9.280;2023-01-24T01:41:11;2.50;99.90
11619;DHT22;5865;48.776;9.280;2023-01-24T01:43:38;2.50;99.90
11619;DHT22;5865;48.776;9.280;2023-01-24T01:46:26;2.40;99.90
11619;DHT22;5865;48.776;9.280;2023-01-24T01:48:58;2.40;99.90
11619;DHT22;5865;48.776;9.280;2023-01-24T01:51:31;2.50;99.90
11619;DHT22;5865;48.776;9.280;2023-01-24T01:54:02;2.40;99.90
11619;DHT22;5865;48.776;9.280;2023-01-24T01:56:33;2.40;99.90
11619;DHT22;5865;48.776;9.280;2023-01-24T01:59:04;2.40;99.90
11619;DHT22;5865;48.776;9.280;2023-01-24T02:04:06;2.40;99.90
11619;DHT22;5865;48.776;9.280;2023-01-24T02:06:46;2.40;99.90
11619;DHT22;5865;48.776;9.280;2023-01-24T02:09:16;2.50;99.90
11619;DHT22;5865;48.776;9.280;2023-01-24T02:11:45;2.50;99.90
11619;DHT22;5865;48.776;9.280;2023-01-24T02:14:14;2.50;99.90
11619;DHT22;5865;48.776;9.280;2023-01-24T02:17:01;2.50;99.90
11619;DHT22;5865;48.776;9.280;2023-01-24T02:19:48;2.60;99.90
11619;DHT22;5865;48.776;9.280;2023-01-24T02:22:22;2.60;99.90
11619;DHT22;5865;48.776;9.280;2023-01-24T02:24:59;2.50;99.90
11619;DHT22;5865;48.776;9.280;2023-01-24T02:27:29;2.50;99.90
11619;DHT22;5865;48.776;9.280;2023-01-24T02:29:57;2.50;99.90
11619;DHT22;5865;48.776;9.280;2023-01-24T02:32:25;2.50;99.90
11619;DHT22;5865;48.776;9.280;2023-01-24T02:34:52;2.50;99.90
11619;DHT22;5865;48.776;9.280;2023-01-24T02:37:24;2.50;99.90
11619;DHT22;5865;48.776;9.280;2023-01-24T02:39:56;2.40;99.90
11619;DHT22;5865;48.776;9.280;2023-01-24T02:42:27;2.40;99.90
11619;DHT22;5865;48.776;9.280;2023-01-24T02:45:04;2.50;99.90
11619;DHT22;5865;48.776;9.280;2023-01-24T02:47:35;2.50;99.90
11619;DHT22;5865;48.776;9.280;2023-01-24T02:50:04;2.50;99.90
11619;DHT22;5865;48.776;9.280;2023-01-24T02:52:32;2.50;99.90
11619;DHT22;5865;48.776;9.280;2023-01-24T02:55:16;2.50;99.90
11619;DHT22;5865;48.776;9.280;2023-01-24T03:00:29;2.40;99.90
11619;DHT22;5865;48.776;9.280;2023-01-24T03:02:59;2.50;99.90
11619;DHT22;5865;48.776;9.280;2023-01-24T03:05:26;2.50;99.90
11619;DHT22;5865;48.776;9.280;2023-01-24T03:08:07;2.40;99.90
11619;DHT22;5865;48.776;9.280;2023-01-24T03:10:34;2.50;99.90
11619;DHT22;5865;48.776;9.280;2023-01-24T03:13:01;2.50;99.90
11619;DHT22;5865;48.776;9.280;2023-01-24T03:21:16;2.50;99.90
11619;DHT22;5865;48.776;9.280;2023-01-24T03:24:01;2.50;99.90
11619;DHT22;5865;48.776;9.280;2023-01-24T03:26:45;2.40;99.90
11619;DHT22;5865;48.776;9.280;2023-01-24T03:29:29;2.40;99.90
11619;DHT22;5865;48.776;9.280;2023-01-24T03:32:15;2.50;99.90
11619;DHT22;5865;48.776;9.280;2023-01-24T03:35:00;2.50;99.90
11619;DHT22;5865;48.776;9.280;2023-01-24T03:40:18;2.50;99.90
11619;DHT22;5865;48.776;9.280;2023-01-24T03:42:46;2.40;99.90
11619;DHT22;5865;48.776;9.280;2023-01-24T03:45:15;2.40;99.90
11619;DHT22;5865;48.776;9.280;2023-01-24T03:47:47;2.60;99.90
11619;DHT22;5865;48.776;9.280;2023-01-24T03:50:23;2.60;99.90
11619;DHT22;5865;48.776;9.280;2023-01-24T03:53:08;2.60;99.90
11619;DHT22;5865;48.776;9.280;2023-01-24T03:55:35;2.60;99.90
11619;DHT22;5865;48.776;9.280;2023-01-24T03:58:03;2.70;99.90
11619;DHT22;5865;48.776;9.280;2023-01-24T04:03:03;2.50;99.90
11619;DHT22;5865;48.776;9.280;2023-01-24T04:05:32;2.50;99.90
11619;DHT22;5865;48.776;9.280;2023-01-24T04:07:59;2.40;99.90
11619;DHT22;5865;48.776;9.280;2023-01-24T04:12:55;2.60;99.90
11619;DHT22;5865;48.776;9.280;2023-01-24T04:15:24;2.60;99.90
11619;DHT22;5865;48.776;9.280;2023-01-24T04:18:04;2.50;99.90
11619;DHT22;5865;48.776;9.280;2023-01-24T04:20:35;2.50;99.90
11619;DHT22;5865;48.776;9.280;2023-01-24T04:23:05;2.50;99.90
11619;DHT22;5865;48.776;9.280;2023-01-24T04:28:02;2.40;99.90
11619;DHT22;5865;48.776;9.280;2023-01-24T04:30:31;2.50;99.90
11619;DHT22;5865;48.776;9.280;2023-01-24T04:35:29;2.60;99.90
11619;DHT22;5865;48.776;9.280;2023-01-24T04:47:59;2.50;99.90
11619;DHT22;5865;48.776;9.280;2023-01-24T04:50:26;2.50;99.90
11619;DHT22;5865;48.776;9.280;2023-01-24T04:55:22;2.40;99.90
11619;DHT22;5865;48.776;9.280;2023-01-24T04:57:51;2.40;99.90
11619;DHT22;5865;48.776;9.280;2023-01-24T05:00:18;2.50;99.90
11619;DHT22;5865;48.776;9.280;2023-01-24T05:02:45;2.50;99.90
11619;DHT22;5865;48.776;9.280;2023-01-24T05:05:14;2.50;99.90
11619;DHT22;5865;48.776;9.280;2023-01-24T05:10:15;2.60;99.90
11619;DHT22;5865;48.776;9.280;2023-01-24T05:12:46;2.60;99.90
11619;DHT22;5865;48.776;9.280;2023-01-24T05:17:48;2.50;99.90
11619;DHT22;5865;48.776;9.280;2023-01-24T05:20:18;2.40;99.90
11619;DHT22;5865;48.776;9.280;2023-01-24T05:25:17;2.40;99.90
11619;DHT22;5865;48.776;9.280;2023-01-24T05:27:44;2.40;99.90
11619;DHT22;5865;48.776;9.280;2023-01-24T05:30:13;2.50;99.90
11619;DHT22;5865;48.776;9.280;2023-01-24T05:32:42;2.50;99.90
11619;DHT22;5865;48.776;9.280;2023-01-24T05:35:09;2.50;99.90
11619;DHT22;5865;48.776;9.280;2023-01-24T05:37:36;2.60;99.90
11619;DHT22;5865;48.776;9.280;2023-01-24T05:40:04;2.40;99.90
11619;DHT22;5865;48.776;9.280;2023-01-24T05:42:33;2.40;99.90
11619;DHT22;5865;48.776;9.280;2023-01-24T05:45:00;2.40;99.90
11619;DHT22;5865;48.776;9.280;2023-01-24T05:47:27;2.40;99.90
11619;DHT22;5865;48.776;9.280;2023-01-24T05:49:54;2.50;99.90
11619;DHT22;5865;48.776;9.280;2023-01-24T05:54:51;2.50;99.90
11619;DHT22;5865;48.776;9.280;2023-01-24T05:57:27;2.50;99.90
11619;DHT22;5865;48.776;9.280;2023-01-24T06:00:15;2.40;99.90
11619;DHT22;5865;48.776;9.280;2023-01-24T06:03:01;2.40;99.90
11619;DHT22;5865;48.776;9.280;2023-01-24T06:07:55;2.40;99.90
11619;DHT22;5865;48.776;9.280;2023-01-24T08:27:42;3.50;99.90
11619;DHT22;5865;48.776;9.280;2023-01-24T08:54:24;3.80;99.90
11619;DHT22;5865;48.776;9.280;2023-01-24T09:44:16;4.50;99.90
11619;DHT22;5865;48.776;9.280;2023-01-24T09:54:46;5.20;99.90
11619;DHT22;5865;48.776;9.280;2023-01-24T09:57:22;5.00;99.90
11619;DHT22;5865;48.776;9.280;2023-01-24T10:07:56;4.60;99.90
11619;DHT22;5865;48.776;9.280;2023-01-24T10:21:14;4.60;99.90
11619;DHT22;5865;48.776;9.280;2023-01-24T10:23:53;4.70;99.90
11619;DHT22;5865;48.776;9.280;2023-01-24T10:28:56;5.00;99.90
11619;DHT22;5865;48.776;9.280;2023-01-24T10:36:35;5.40;99.90
11619;DHT22;5865;48.776;9.280;2023-01-24T10:46:57;5.40;99.90
11619;DHT22;5865;48.776;9.280;2023-01-24T13:39:05;4.00;99.90
11619;DHT22;5865;48.776;9.280;2023-01-24T13:41:36;3.90;99.90
11619;DHT22;5865;48.776;9.280;2023-01-24T14:32:50;3.40;99.90
11619;DHT22;5865;48.776;9.280;2023-01-24T14:37:50;3.50;99.90
11619;DHT22;5865;48.776;9.280;2023-01-24T14:40:26;3.40;99.90
11619;DHT22;5865;48.776;9.280;2023-01-24T14:42:59;3.40;99.90
11619;DHT22;5865;48.776;9.280;2023-01-24T14:45:30;3.40;99.90
11619;DHT22;5865;48.776;9.280;2023-01-24T14:47:59;3.40;99.90
11619;DHT22;5865;48.776;9.280;2023-01-24T14:50:28;3.40;99.90
11619;DHT22;5865;48.776;9.280;2023-01-24T14:52:57;3.40;99.90
11619;DHT22;5865;48.776;9.280;2023-01-24T14:55:35;3.30;99.90
11619;DHT22;5865;48.776;9.280;2023-01-24T15:00:43;3.40;99.90
11619;DHT22;5865;48.776;9.280;2023-01-24T15:03:16;3.40;99.90
11619;DHT22;5865;48.776;9.280;2023-01-24T15:06:00;3.40;99.90
11619;DHT22;5865;48.776;9.280;2023-01-24T15:08:29;3.40;99.90
11619;DHT22;5865;48.776;9.280;2023-01-24T15:11:02;3.40;99.90
11619;DHT22;5865;48.776;9.280;2023-01-24T15:13:33;3.40;99.90
11619;DHT22;5865;48.776;9.280;2023-01-24T15:16:03;3.40;99.90
11619;DHT22;5865;48.776;9.280;2023-01-24T15:18:43;3.40;99.90
11619;DHT22;5865;48.776;9.280;2023-01-24T15:21:28;3.40;99.90
11619;DHT22;5865;48.776;9.280;2023-01-24T15:23:59;3.30;99.90
11619;DHT22;5865;48.776;9.280;2023-01-24T15:26:38;3.30;99.90
11619;DHT22;5865;48.776;9.280;2023-01-24T15:32:29;3.20;99.90
11619;DHT22;5865;48.776;9.280;2023-01-24T15:35:19;3.30;99.90
11619;DHT22;5865;48.776;9.280;2023-01-24T15:38:12;3.30;99.90
11619;DHT22;5865;48.776;9.280;2023-01-24T15:40:55;3.40;99.90
11619;DHT22;5865;48.776;9.280;2023-01-24T15:43:29;3.40;99.90
11619;DHT22;5865;48.776;9.280;2023-01-24T15:46:31;3.40;99.90
11619;DHT22;5865;48.776;9.280;2023-01-24T15:49:25;3.40;99.90
11619;DHT22;5865;48.776;9.280;2023-01-24T15:52:19;3.40;99.90
11619;DHT22;5865;48.776;9.280;2023-01-24T15:54:49;3.40;99.90
11619;DHT22;5865;48.776;9.280;2023-01-24T15:57:21;3.30;99.90
11619;DHT22;5865;48.776;9.280;2023-01-24T15:59:53;3.20;99.90
11619;DHT22;5865;48.776;9.280;2023-01-24T16:02:21;3.20;99.90
11619;DHT22;5865;48.776;9.280;2023-01-24T16:04:48;3.20;99.90
11619;DHT22;5865;48.776;9.280;2023-01-24T16:07:16;3.20;99.90
11619;DHT22;5865;48.776;9.280;2023-01-24T16:09:44;3.10;99.90
11619;DHT22;5865;48.776;9.280;2023-01-24T16:12:15;3.10;99.90
11619;DHT22;5865;48.776;9.280;2023-01-24T16:14:47;3.20;99.90
11619;DHT22;5865;48.776;9.280;2023-01-24T16:17:17;3.20;99.90
11619;DHT22;5865;48.776;9.280;2023-01-24T16:19:45;3.20;99.90
11619;DHT22;5865;48.776;9.280;2023-01-24T16:22:12;3.20;99.90
11619;DHT22;5865;48.776;9.280;2023-01-24T16:24:39;3.20;99.90
11619;DHT22;5865;48.776;9.280;2023-01-24T16:27:09;3.20;99.90
11619;DHT22;5865;48.776;9.280;2023-01-24T16:29:37;3.10;99.90
11619;DHT22;5865;48.776;9.280;2023-01-24T16:32:18;3.10;99.90
11619;DHT22;5865;48.776;9.280;2023-01-24T16:34:45;3.10;99.90
11619;DHT22;5865;48.776;9.280;2023-01-24T16:37:12;3.10;99.90
11619;DHT22;5865;48.776;9.280;2023-01-24T16:39:39;3.10;99.90
11619;DHT22;5865;48.776;9.280;2023-01-24T16:42:12;3.10;99.90
11619;DHT22;5865;48.776;9.280;2023-01-24T16:44:40;3.10;99.90
11619;DHT22;5865;48.776;9.280;2023-01-24T16:47:08;3.10;99.90
11619;DHT22;5865;48.776;9.280;2023-01-24T16:49:38;3.10;99.90
11619;DHT22;5865;48.776;9.280;2023-01-24T16:52:05;3.00;99.90
11619;DHT22;5865;48.776;9.280;2023-01-24T16:54:32;3.00;99.90
11619;DHT22;5865;48.776;9.280;2023-01-24T16:57:00;3.00;99.90
11619;DHT22;5865;48.776;9.280;2023-01-24T16:59:27;3.00;99.90
11619;DHT22;5865;48.776;9.280;2023-01-24T17:01:54;2.90;99.90
11619;DHT22;5865;48.776;9.280;2023-01-24T17:04:21;2.90;99.90
11619;DHT22;5865;48.776;9.280;2023-01-24T17:06:50;2.80;99.90
11619;DHT22;5865;48.776;9.280;2023-01-24T17:09:17;2.80;99.90
11619;DHT22;5865;48.776;9.280;2023-01-24T17:11:44;2.80;99.90
11619;DHT22;5865;48.776;9.280;2023-01-24T17:14:11;2.80;99.90
11619;DHT22;5865;48.776;9.280;2023-01-24T17:16:38;2.80;99.90
11619;DHT22;5865;48.776;9.280;2023-01-24T17:19:05;2.80;99.90
11619;DHT22;5865;48.776;9.280;2023-01-24T17:21:32;2.90;99.90
11619;DHT22;5865;48.776;9.280;2023-01-24T17:24:01;2.80;99.90
11619;DHT22;5865;48.776;9.280;2023-01-24T17:28:55;2.70;99.90
11619;DHT22;5865;48.776;9.280;2023-01-24T17:31:22;2.70;99.90
11619;DHT22;5865;48.776;9.280;2023-01-24T17:33:52;2.60;99.90
11619;DHT22;5865;48.776;9.280;2023-01-24T17:36:20;2.60;99.90
11619;DHT22;5865;48.776;9.280;2023-01-24T17:38:47;2.60;99.90
11619;DHT22;5865;48.776;9.280;2023-01-24T17:41:17;2.60;99.90
11619;DHT22;5865;48.776;9.280;2023-01-24T17:43:45;2.60;99.90
11619;DHT22;5865;48.776;9.280;2023-01-24T17:46:13;2.50;99.90
11619;DHT22;5865;48.776;9.280;2023-01-24T17:48:40;2.60;99.90
11619;DHT22;5865;48.776;9.280;2023-01-24T17:51:09;2.60;99.90
11619;DHT22;5865;48.776;9.280;2023-01-24T17:53:38;2.50;99.90
11619;DHT22;5865;48.776;9.280;2023-01-24T17:56:06;2.50;99.90
11619;DHT22;5865;48.776;9.280;2023-01-24T17:58:37;2.50;99.90
11619;DHT22;5865;48.776;9.280;2023-01-24T18:01:04;2.50;99.90
11619;DHT22;5865;48.776;9.280;2023-01-24T18:03:32;2.50;99.90
11619;DHT22;5865;48.776;9.280;2023-01-24T18:06:01;2.60;99.90
11619;DHT22;5865;48.776;9.280;2023-01-24T18:08:29;2.60;99.90
11619;DHT22;5865;48.776;9.280;2023-01-24T18:10:56;2.50;99.90
11619;DHT22;5865;48.776;9.280;2023-01-24T18:13:27;2.50;99.90
11619;DHT22;5865;48.776;9.280;2023-01-24T18:16:01;2.60;99.90
11619;DHT22;5865;48.776;9.280;2023-01-24T18:18:28;2.50;99.90
11619;DHT22;5865;48.776;9.280;2023-01-24T18:20:55;2.50;99.90
11619;DHT22;5865;48.776;9.280;2023-01-24T18:23:22;2.40;99.90
11619;DHT22;5865;48.776;9.280;2023-01-24T18:25:50;2.40;99.90
11619;DHT22;5865;48.776;9.280;2023-01-24T18:28:17;2.40;99.90
11619;DHT22;5865;48.776;9.280;2023-01-24T18:30:44;2.40;99.90
11619;DHT22;5865;48.776;9.280;2023-01-24T18:33:12;2.40;99.90
11619;DHT22;5865;48.776;9.280;2023-01-24T18:35:40;2.40;99.90
11619;DHT22;5865;48.776;9.280;2023-01-24T18:38:07;2.30;99.90
11619;DHT22;5865;48.776;9.280;2023-01-24T18:40:34;2.40;99.90
11619;DHT22;5865;48.776;9.280;2023-01-24T18:43:02;2.40;99.90
11619;DHT22;5865;48.776;9.280;2023-01-24T18:45:29;2.40;99.90
11619;DHT22;5865;48.776;9.280;2023-01-24T18:47:56;2.30;99.90
11619;DHT22;5865;48.776;9.280;2023-01-24T18:50:25;2.40;99.90
11619;DHT22;5865;48.776;9.280;2023-01-24T18:52:53;2.40;99.90
11619;DHT22;5865;48.776;9.280;2023-01-24T18:55:22;2.30;99.90
11619;DHT22;5865;48.776;9.280;2023-01-24T18:57:50;2.40;99.90
11619;DHT22;5865;48.776;9.280;2023-01-24T19:00:19;2.30;99.90
11619;DHT22;5865;48.776;9.280;2023-01-24T19:07:47;2.40;99.90
11619;DHT22;5865;48.776;9.280;2023-01-24T19:12:43;2.40;99.90
11619;DHT22;5865;48.776;9.280;2023-01-24T19:15:11;2.40;99.90
11619;DHT22;5865;48.776;9.280;2023-01-24T19:17:38;2.30;99.90
11619;DHT22;5865;48.776;9.280;2023-01-24T19:20:06;2.40;99.90
11619;DHT22;5865;48.776;9.280;2023-01-24T19:22:33;2.40;99.90
11619;DHT22;5865;48.776;9.280;2023-01-24T19:25:04;2.40;99.90
11619;DHT22;5865;48.776;9.280;2023-01-24T19:27:32;2.30;99.90
11619;DHT22;5865;48.776;9.280;2023-01-24T19:29:59;2.30;99.90
11619;DHT22;5865;48.776;9.280;2023-01-24T19:32:26;2.40;99.90
11619;DHT22;5865;48.776;9.280;2023-01-24T19:34:55;2.30;99.90
11619;DHT22;5865;48.776;9.280;2023-01-24T19:37:22;2.30;99.90
11619;DHT22;5865;48.776;9.280;2023-01-24T19:42:18;2.30;99.90
11619;DHT22;5865;48.776;9.280;2023-01-24T19:44:45;2.30;99.90
11619;DHT22;5865;48.776;9.280;2023-01-24T19:49:42;2.30;99.90
11619;DHT22;5865;48.776;9.280;2023-01-24T19:52:10;2.30;99.90
11619;DHT22;5865;48.776;9.280;2023-01-24T19:54:38;2.30;99.90
11619;DHT22;5865;48.776;9.280;2023-01-24T19:57:06;2.20;99.90
11619;DHT22;5865;48.776;9.280;2023-01-24T19:59:35;2.20;99.90
11619;DHT22;5865;48.776;9.280;2023-01-24T20:02:03;2.20;99.90
11619;DHT22;5865;48.776;9.280;2023-01-24T20:04:31;2.20;99.90
11619;DHT22;5865;48.776;9.280;2023-01-24T20:06:59;2.20;99.90
11619;DHT22;5865;48.776;9.280;2023-01-24T20:09:28;2.20;99.90
11619;DHT22;5865;48.776;9.280;2023-01-24T20:11:57;2.10;99.90
11619;DHT22;5865;48.776;9.280;2023-01-24T20:14:24;2.20;99.90
11619;DHT22;5865;48.776;9.280;2023-01-24T20:19:22;2.20;99.90
11619;DHT22;5865;48.776;9.280;2023-01-24T20:21:50;2.20;99.90
11619;DHT22;5865;48.776;9.280;2023-01-24T20:24:18;2.20;99.90
11619;DHT22;5865;48.776;9.280;2023-01-24T20:26:49;2.30;99.90
11619;DHT22;5865;48.776;9.280;2023-01-24T20:34:14;2.20;99.90
11619;DHT22;5865;48.776;9.280;2023-01-24T20:36:42;2.30;99.90
11619;DHT22;5865;48.776;9.280;2023-01-24T20:41:38;2.30;99.90
11619;DHT22;5865;48.776;9.280;2023-01-24T20:44:08;2.20;99.90
11619;DHT22;5865;48.776;9.280;2023-01-24T20:49:05;2.20;99.90
11619;DHT22;5865;48.776;9.280;2023-01-24T20:51:34;2.30;99.90
11619;DHT22;5865;48.776;9.280;2023-01-24T20:54:01;2.20;99.90
11619;DHT22;5865;48.776;9.280;2023-01-24T20:56:29;6.20;99.90
11619;DHT22;5865;48.776;9.280;2023-01-24T20:58:58;2.10;99.90
11619;DHT22;5865;48.776;9.280;2023-01-24T21:01:28;2.20;99.90
11619;DHT22;5865;48.776;9.280;2023-01-24T21:03:58;2.30;99.90
11619;DHT22;5865;48.776;9.280;2023-01-24T21:06:26;2.30;99.90
11619;DHT22;5865;48.776;9.280;2023-01-24T21:08:55;2.30;99.90
11619;DHT22;5865;48.776;9.280;2023-01-24T21:11:24;2.20;99.90
11619;DHT22;5865;48.776;9.280;2023-01-24T21:13:53;2.20;99.90
11619;DHT22;5865;48.776;9.280;2023-01-24T21:16:21;2.20;99.90
11619;DHT22;5865;48.776;9.280;2023-01-24T21:18:50;2.20;99.90
11619;DHT22;5865;48.776;9.280;2023-01-24T21:21:19;2.20;99.90
11619;DHT22;5865;48.776;9.280;2023-01-24T21:23:46;2.20;99.90
11619;DHT22;5865;48.776;9.280;2023-01-24T21:26:15;2.30;99.90
11619;DHT22;5865;48.776;9.280;2023-01-24T21:28:42;2.20;99.90
11619;DHT22;5865;48.776;9.280;2023-01-24T21:31:16;2.20;99.90
11619;DHT22;5865;48.776;9.280;2023-01-24T21:33:44;2.30;99.90
11619;DHT22;5865;48.776;9.280;2023-01-24T21:36:13;2.30;99.90
11619;DHT22;5865;48.776;9.280;2023-01-24T21:38:41;2.30;99.90
11619;DHT22;5865;48.776;9.280;2023-01-24T21:41:10;2.30;99.90
11619;DHT22;5865;48.776;9.280;2023-01-24T21:46:30;2.20;99.90
11619;DHT22;5865;48.776;9.280;2023-01-24T21:48:58;2.20;99.90
11619;DHT22;5865;48.776;9.280;2023-01-24T21:51:39;2.20;99.90
11619;DHT22;5865;48.776;9.280;2023-01-24T21:54:09;2.30;99.90
11619;DHT22;5865;48.776;9.280;2023-01-24T21:56:38;2.20;99.90
11619;DHT22;5865;48.776;9.280;2023-01-24T21:59:26;2.20;99.90
